Latest Weather Observations for Yarram Airport

IDV60801

Issued at 4:35 pm EDT Thursday 27 November 2014 (issued every 30 minutes, with the page automatically refreshed every 10 minutes)

About weather observations | Map of weather stations | Latest weather observations for VIC | Other Formats
Station Details ID: 085151 Name: YARRAM AIRPORT Lat: -38.56 Lon: 146.75 Height: 17.9 m
Data from the previous 72 hours. | See also: Recent months at Yarram Airport
Date/Time
EDT
Temp
°C
App
Temp
°C
Dew
Point
Rel
Hum
%
Delta-T
°C
Wind Press
QNH
hPa
Press
MSL
hPa
Rain
since 9 am
mm
Dir
 
Spd
km/h
Gust
km/h
Spd
kts
Gust
kts
27/04:30pm 18.6 14.9 8.0 50 5.4 SW 17 28 9 15 1023.9 1023.9 -
27/04:00pm 18.5 14.9 8.5 52 5.1 WSW 17 26 9 14 1024.2 1024.2 -
27/03:30pm 18.1 14.1 8.1 52 5.1 WSW 19 30 10 16 1024.2 1024.2 -
27/03:00pm 18.7 14.7 9.2 54 5.0 WSW 20 30 11 16 1024.2 1024.2 -
27/02:30pm 18.6 14.0 8.3 51 5.3 SW 22 32 12 17 1024.5 1024.5 -
27/02:00pm 18.8 14.2 9.6 55 4.8 WSW 24 33 13 18 1024.8 1024.8 -
27/01:30pm 18.9 14.1 8.8 52 5.3 SW 24 33 13 18 1024.8 1024.8 -
27/09:00am 14.5 9.5 8.0 65 3.2 WSW 24 32 13 17 1025.4 1025.4 0.4
27/08:30am 13.6 8.7 6.9 64 3.2 WSW 22 33 12 18 1025.3 1025.3 0.4
27/08:00am 13.5 9.9 8.4 71 2.5 W 17 22 9 12 1025.1 1025.1 0.4
27/07:30am 13.1 9.3 7.5 69 2.7 W 17 24 9 13 1024.7 1024.7 0.4
27/07:00am 12.1 8.7 7.8 75 2.1 W 15 19 8 10 1024.5 1024.5 0.4
27/06:30am 11.5 8.5 7.6 77 1.9 W 13 15 7 8 1024.2 1024.2 0.4
27/06:00am 11.2 8.6 7.7 79 1.7 W 11 15 6 8 1023.8 1023.8 0.4
27/05:30am 11.2 8.6 7.7 79 1.7 W 11 15 6 8 1023.6 1023.6 0.4
27/05:00am 10.9 7.9 7.6 80 1.6 W 13 15 7 8 1023.3 1023.3 0.4
27/04:30am 11.4 8.8 7.7 78 1.8 W 11 15 6 8 1023.2 1023.2 0.4
27/04:00am 11.6 8.6 7.9 78 1.8 W 13 19 7 10 1023.0 1023.0 0.4
27/03:30am 11.6 9.0 7.9 78 1.8 W 11 15 6 8 1022.9 1022.9 0.4
27/03:00am 11.7 9.1 7.8 77 1.9 W 11 15 6 8 1023.0 1023.0 0.4
27/02:30am 11.8 8.8 7.9 77 1.9 W 13 17 7 9 1023.1 1023.1 0.4
27/02:00am 11.7 9.1 7.8 77 1.9 W 11 15 6 8 1023.2 1023.2 0.4
27/01:30am 11.7 8.7 7.6 76 2.0 W 13 19 7 10 1023.4 1023.4 0.4
27/01:00am 11.8 8.8 7.5 75 2.1 W 13 17 7 9 1023.5 1023.5 0.4
27/12:30am 11.2 7.8 7.5 78 1.8 W 15 20 8 11 1023.6 1023.6 0.4
27/12:00am 11.2 8.5 7.3 77 1.9 W 11 13 6 7 1023.7 1023.7 0.4
 
Date/Time
EDT
Temp
°C
App
Temp
°C
Dew
Point
Rel
Hum
%
Delta-T
°C
Wind Press
QNH
hPa
Press
MSL
hPa
Rain
since 9 am
mm
Dir
 
Spd
km/h
Gust
km/h
Spd
kts
Gust
kts
26/11:30pm 11.3 7.5 7.4 77 1.9 W 17 24 9 13 1023.5 1023.5 0.4
26/11:00pm 11.7 7.9 7.6 76 2.0 W 17 20 9 11 1023.3 1023.3 0.4
26/10:30pm 11.4 8.4 7.7 78 1.8 WNW 13 17 7 9 1023.3 1023.3 0.4
26/10:00pm 10.6 8.4 7.8 83 1.3 N 9 9 5 5 1023.2 1023.2 0.4
26/09:30pm 11.4 9.2 7.7 78 1.8 WNW 9 15 5 8 1022.8 1022.8 0.4
26/09:00pm 11.6 7.4 7.5 76 2.0 W 19 24 10 13 1022.5 1022.5 0.4
26/08:30pm 11.8 7.0 7.5 75 2.1 WSW 22 30 12 16 1022.2 1022.2 0.4
26/08:00pm 12.7 7.1 7.2 69 2.7 WSW 26 35 14 19 1022.1 1022.1 0.4
26/07:30pm 13.9 8.0 7.7 66 3.1 WSW 28 39 15 21 1021.8 1021.8 0.4
26/07:00pm 14.8 7.8 8.3 65 3.3 SW 35 46 19 25 1021.4 1021.4 0.4
26/06:30pm 15.1 8.2 8.8 66 3.2 SW 35 44 19 24 1021.0 1021.0 0.4
26/06:00pm 16.3 9.9 9.5 64 3.5 SW 33 43 18 23 1020.8 1020.8 0.4
26/05:30pm 17.2 11.1 10.3 64 3.7 WSW 33 44 18 24 1020.6 1020.6 0.4
26/05:00pm 17.3 11.3 10.0 62 3.8 WSW 32 43 17 23 1020.5 1020.5 0.4
26/04:30pm 16.3 9.6 9.7 65 3.4 WSW 35 44 19 24 1020.6 1020.6 0.4
26/04:00pm 16.5 10.8 11.9 74 2.5 SW 33 44 18 24 1020.5 1020.5 0.4
26/03:42pm 16.2 11.0 11.6 74 2.5 WSW 30 48 16 26 1020.5 1020.5 0.4
26/03:30pm 15.7 10.5 12.8 83 1.6 WSW 32 41 17 22 1020.5 1020.5 0.4
26/03:00pm 15.1 11.2 14.5 96 0.3 WSW 28 41 15 22 1020.6 1020.6 0.4
26/02:30pm 14.2 10.2 14.0 99 0.1 WSW 28 41 15 22 1020.6 1020.6 0.4
26/02:00pm 14.4 9.6 13.9 97 0.3 WSW 32 43 17 23 1020.3 1020.3 0.0
26/01:44pm 15.5 10.1 12.8 84 1.5 SW 33 56 18 30 1020.1 1020.1 0.0
26/01:30pm 17.0 12.5 11.5 70 3.0 W 26 33 14 18 1019.8 1019.8 0.0
26/01:00pm 16.6 12.2 11.7 73 2.7 W 26 35 14 19 1020.0 1020.0 0.0
26/12:30pm 16.7 12.9 11.0 69 3.1 W 22 28 12 15 1020.0 1020.0 0.0
26/12:00pm 16.5 11.7 10.4 67 3.2 W 26 35 14 19 1019.9 1019.9 0.0
26/11:30am 16.4 10.4 10.0 66 3.4 WNW 32 43 17 23 1019.8 1019.8 0.0
26/11:00am 18.4 13.3 10.7 61 4.1 W 28 41 15 22 1019.6 1019.6 0.0
26/10:30am 17.2 11.1 9.6 61 4.0 W 32 44 17 24 1019.6 1019.6 0.0
26/10:00am 17.4 11.9 10.5 64 3.7 W 30 43 16 23 1019.6 1019.6 0.0
26/09:30am 15.6 10.2 9.5 67 3.2 W 28 35 15 19 1019.7 1019.7 0.0
26/09:00am 14.9 10.3 9.5 70 2.8 WNW 24 33 13 18 1019.7 1019.7 0.0
26/08:30am 14.1 9.5 9.5 74 2.4 WNW 24 30 13 16 1019.6 1019.6 0.0
26/08:00am 13.2 8.4 8.7 74 2.2 W 24 32 13 17 1019.6 1019.6 0.0
26/07:30am 13.1 9.3 9.0 76 2.1 W 19 24 10 13 1019.3 1019.3 0.0
26/07:00am 12.8 9.0 8.9 77 2.0 WNW 19 26 10 14 1019.2 1019.2 0.0
26/06:30am 12.4 9.8 9.2 81 1.6 W 13 19 7 10 1019.0 1019.0 0.0
26/06:00am 12.0 9.6 8.7 80 1.6 WNW 11 15 6 8 1019.0 1019.0 0.0
26/05:30am 11.8 9.0 8.6 81 1.6 WNW 13 20 7 11 1018.8 1018.8 0.0
26/05:00am 11.8 9.4 8.8 82 1.5 WNW 11 13 6 7 1018.6 1018.6 0.0
26/04:30am 10.7 8.4 9.1 90 0.8 NW 11 13 6 7 1018.6 1018.6 0.0
26/04:00am 10.0 9.8 9.2 95 0.4 CALM 0 0 0 0 1018.6 1018.6 0.0
26/03:30am 8.8 7.6 7.9 94 0.4 N 4 6 2 3 1018.5 1018.5 0.0
26/03:00am 7.8 5.3 6.7 93 0.5 NNW 9 13 5 7 1018.8 1018.8 0.0
26/02:30am 8.8 6.2 7.6 92 0.6 NNW 11 13 6 7 1019.0 1019.0 0.0
26/02:00am 9.1 6.1 7.5 90 0.8 NNW 13 15 7 8 1019.2 1019.2 0.0
26/01:30am 9.6 6.8 8.7 94 0.4 NNW 13 17 7 9 1019.5 1019.5 0.0
26/01:00am 7.7 5.1 6.3 91 0.6 NNE 9 11 5 6 1019.8 1019.8 0.0
26/12:30am 9.2 7.2 7.2 87 0.9 NW 7 11 4 6 1019.9 1019.9 0.0
26/12:00am 10.5 7.2 8.1 85 1.2 WNW 15 17 8 9 1020.1 1020.1 0.0
 
Date/Time
EDT
Temp
°C
App
Temp
°C
Dew
Point
Rel
Hum
%
Delta-T
°C
Wind Press
QNH
hPa
Press
MSL
hPa
Rain
since 9 am
mm
Dir
 
Spd
km/h
Gust
km/h
Spd
kts
Gust
kts
25/11:30pm 11.0 7.8 8.4 84 1.3 W 15 19 8 10 1020.2 1020.2 0.0
25/11:00pm 11.7 8.3 9.1 84 1.3 W 17 20 9 11 1020.3 1020.3 0.0
25/10:30pm 12.2 8.8 9.2 82 1.5 W 17 26 9 14 1020.3 1020.3 0.0
25/10:00pm 11.7 8.7 9.3 85 1.2 W 15 17 8 9 1020.4 1020.4 0.0
25/09:30pm 11.8 9.2 9.2 84 1.3 W 13 19 7 10 1020.2 1020.2 0.0
25/09:00pm 12.8 9.1 9.3 79 1.8 W 19 22 10 12 1019.9 1019.9 0.0
25/08:30pm 13.6 8.4 8.9 73 2.4 W 26 37 14 20 1019.7 1019.7 0.0
25/08:00pm 13.8 9.4 8.8 72 2.5 W 22 30 12 16 1019.4 1019.4 0.0
25/07:30pm 14.9 9.0 9.1 68 3.0 WSW 30 41 16 22 1019.0 1019.0 0.0
25/07:00pm 15.5 9.5 8.7 64 3.5 WSW 30 41 16 22 1018.6 1018.6 0.0
25/06:30pm 16.3 10.2 9.9 66 3.4 WSW 32 44 17 24 1018.2 1018.2 0.0
25/06:00pm 17.0 10.6 9.2 60 4.0 WSW 33 44 18 24 1017.7 1017.7 0.0
25/05:30pm 16.9 10.2 9.8 63 3.7 WSW 35 48 19 26 1017.5 1017.5 0.0
25/05:00pm 17.5 10.6 8.9 57 4.4 WSW 35 48 19 26 1017.2 1017.2 0.0
25/04:30pm 17.6 10.9 9.5 59 4.2 WSW 35 50 19 27 1017.2 1017.2 0.0
25/04:00pm 17.8 11.1 8.1 53 4.9 W 33 50 18 27 1017.1 1017.1 0.0
25/03:30pm 18.7 11.4 8.7 52 5.2 W 37 50 20 27 1017.2 1017.2 0.0
25/03:00pm 14.9 6.7 10.3 74 2.4 WSW 44 56 24 30 1017.4 1017.4 0.0
25/02:30pm 19.3 11.9 8.3 49 5.7 W 37 50 20 27 1017.0 1017.0 0.0
25/02:11pm 17.6 10.3 7.4 51 5.1 W 35 54 19 29 1017.1 1017.1 0.0
25/02:00pm 20.1 13.0 9.7 51 5.5 W 37 52 20 28 1016.9 1016.9 0.0
25/01:30pm 19.8 11.4 9.1 50 5.6 W 43 61 23 33 1016.9 1016.9 0.0
25/01:02pm 18.6 10.1 6.8 46 5.9 W 41 59 22 32 1016.7 1016.7 0.0
25/01:00pm 18.1 10.0 7.2 49 5.5 W 39 56 21 30 1016.6 1016.6 0.0
25/12:43pm 18.6 9.9 7.7 49 5.6 WSW 43 56 23 30 1016.5 1016.5 0.0
25/12:30pm 17.6 10.5 9.5 59 4.2 W 37 50 20 27 1016.5 1016.5 0.0
25/12:00pm 18.5 10.6 9.3 55 4.8 W 41 54 22 29 1016.3 1016.3 0.0
25/11:30am 16.6 7.6 8.8 60 4.0 W 46 65 25 35 1016.2 1016.2 0.0
25/11:00am 16.9 8.8 8.8 59 4.2 W 41 61 22 33 1015.9 1015.9 0.0
25/10:54am 17.1 10.1 10.0 63 3.7 W 37 54 20 29 1015.8 1015.8 0.0
25/10:38am 14.4 8.1 11.0 80 1.8 WSW 35 54 19 29 1015.9 1015.9 0.0
25/10:30am 15.0 8.1 10.2 73 2.5 W 37 54 20 29 1015.8 1015.8 0.0
25/10:00am 15.7 8.2 9.6 67 3.2 W 39 56 21 30 1015.3 1015.3 0.0
25/09:30am 15.7 9.2 10.5 71 2.7 W 35 54 19 29 1015.3 1015.3 0.0
25/09:17am 15.2 8.7 10.2 72 2.6 W 35 54 19 29 1015.2 1015.2 0.0
25/09:00am 14.9 7.8 9.7 71 2.7 W 37 46 20 25 1015.0 1015.0 6.4
25/08:30am 14.7 8.1 10.1 74 2.4 W 35 50 19 27 1014.4 1014.4 6.4
25/08:11am 14.4 8.5 10.4 77 2.1 W 32 50 17 27 1014.2 1014.2 6.4
25/08:00am 13.9 7.8 9.7 76 2.2 W 32 43 17 23 1014.0 1014.0 6.4
25/07:46am 13.4 7.7 9.8 79 1.8 W 30 48 16 26 1013.7 1013.7 6.4
25/07:30am 12.6 5.8 9.2 80 1.7 W 35 52 19 28 1013.7 1013.7 6.4
25/07:00am 12.2 5.9 9.0 81 1.6 W 32 46 17 25 1013.1 1013.1 6.4
25/06:30am 11.5 6.2 8.5 82 1.5 W 26 39 14 21 1013.0 1013.0 6.4
25/06:00am 11.3 6.1 8.7 84 1.3 W 26 35 14 19 1012.6 1012.6 6.4
25/05:30am 11.1 5.1 8.7 85 1.2 W 30 39 16 21 1011.8 1011.8 6.4
25/05:00am 10.9 6.0 8.3 84 1.3 WNW 24 33 13 18 1011.7 1011.7 6.4
25/04:30am 11.0 5.3 8.4 84 1.3 W 28 43 15 23 1011.5 1011.5 6.4
25/04:00am 11.1 5.7 8.1 82 1.5 WNW 26 35 14 19 1011.3 1011.3 6.4
25/03:30am 11.0 6.9 8.6 85 1.2 WNW 20 32 11 17 1011.3 1011.3 6.4
25/03:00am 10.7 6.5 8.3 85 1.2 WNW 20 28 11 15 1011.4 1011.4 6.4
25/02:30am 10.8 6.8 8.2 84 1.3 WNW 19 28 10 15 1011.5 1011.5 6.4
25/02:00am 11.1 7.2 8.5 84 1.3 WNW 19 26 10 14 1011.5 1011.5 6.4
25/01:30am 10.7 7.2 8.6 87 1.0 WNW 17 20 9 11 1011.6 1011.6 6.4
25/01:00am 11.5 7.1 9.1 85 1.2 W 22 30 12 16 1011.7 1011.7 6.4
25/12:33am 12.8 7.6 10.3 85 1.3 W 28 46 15 25 1011.8 1011.8 6.4
25/12:30am 12.7 8.4 10.6 87 1.1 W 24 35 13 19 1011.7 1011.7 6.4
25/12:00am 12.6 9.6 10.7 88 1.0 W 17 24 9 13 1011.4 1011.4 6.4
 
Date/Time
EDT
Temp
°C
App
Temp
°C
Dew
Point
Rel
Hum
%
Delta-T
°C
Wind Press
QNH
hPa
Press
MSL
hPa
Rain
since 9 am
mm
Dir
 
Spd
km/h
Gust
km/h
Spd
kts
Gust
kts
24/11:30pm 13.1 9.9 11.2 88 1.0 W 19 24 10 13 1011.5 1011.5 6.4
24/11:00pm 13.0 9.8 11.1 88 1.0 W 19 24 10 13 1011.3 1011.3 6.4
24/10:30pm 13.1 9.6 11.0 87 1.1 W 20 26 11 14 1011.2 1011.2 6.4
24/10:00pm 13.4 8.4 11.1 86 1.2 WSW 28 35 15 19 1010.7 1010.7 6.4
24/09:30pm 13.7 8.8 12.4 92 0.7 WSW 30 39 16 21 1010.5 1010.5 6.4
24/09:12pm 13.5 8.4 13.2 98 0.2 WSW 32 50 17 27 1009.9 1009.9 6.4
24/09:00pm 14.2 10.5 13.9 98 0.2 WSW 26 33 14 18 1009.5 1009.5 6.2
24/08:30pm 15.1 12.0 13.5 90 0.9 W 22 33 12 18 1008.9 1008.9 6.2
24/08:00pm 15.1 13.2 14.1 94 0.6 WSW 17 26 9 14 1008.8 1008.8 6.2
24/07:30pm 15.3 11.6 14.0 92 0.7 WSW 26 37 14 20 1008.2 1008.2 6.2
24/07:00pm 15.3 11.0 14.3 94 0.6 W 30 41 16 22 1007.6 1007.6 6.2
24/06:30pm 15.8 11.0 15.5 98 0.2 WSW 35 46 19 25 1006.7 1006.7 6.0
24/06:18pm 16.7 13.6 16.5 99 0.1 SW 28 33 15 18 1006.0 1006.0 5.4
24/06:00pm 17.2 18.0 17.2 100 0.0 SW 9 15 5 8 1006.1 1006.1 4.4
24/05:30pm 17.0 16.9 17.0 100 0.0 SSW 13 17 7 9 1005.3 1005.3 4.0
24/05:07pm 17.4 13.7 16.9 97 0.3 SW 32 37 17 20 1005.3 1005.3 3.8
24/05:00pm 18.0 18.9 17.5 97 0.3 ENE 9 17 5 9 1004.4 1004.4 3.4

Other Formats:

Comma delimited format used in spreadsheet applications
http://www.bom.gov.au/fwo/IDV60801/IDV60801.95890.axf

JavaScript Object Notation format (JSON) in row-major order
http://www.bom.gov.au/fwo/IDV60801/IDV60801.95890.json